sensor_id;sensor_type;location;lat;lon;timestamp;pressure;altitude;pressure_sealevel;temperature;humidity
41712;BME280;27399;51.516;13.670;2023-07-13T00:00:38;100162.63;;;24.78;59.39
41712;BME280;27399;51.516;13.670;2023-07-13T00:03:07;100146.59;;;24.60;59.26
41712;BME280;27399;51.516;13.670;2023-07-13T00:05:36;100167.97;;;24.67;59.86
41712;BME280;27399;51.516;13.670;2023-07-13T00:08:05;100170.50;;;24.70;60.45
41712;BME280;27399;51.516;13.670;2023-07-13T00:10:31;100162.63;;;24.78;61.20
41712;BME280;27399;51.516;13.670;2023-07-13T00:13:02;100162.22;;;24.84;61.87
41712;BME280;27399;51.516;13.670;2023-07-13T00:15:32;100152.19;;;24.72;62.09
41712;BME280;27399;51.516;13.670;2023-07-13T00:18:00;100125.78;;;24.59;61.91
41712;BME280;27399;51.516;13.670;2023-07-13T00:20:29;100117.59;;;24.59;61.92
41712;BME280;27399;51.516;13.670;2023-07-13T00:29:20;100117.06;;;24.28;61.03
41712;BME280;27399;51.516;13.670;2023-07-13T00:31:46;100130.56;;;24.30;61.12
41712;BME280;27399;51.516;13.670;2023-07-13T00:34:13;100131.88;;;24.24;61.27
41712;BME280;27399;51.516;13.670;2023-07-13T00:36:39;100127.31;;;24.12;61.86
41712;BME280;27399;51.516;13.670;2023-07-13T00:39:05;100144.97;;;24.06;61.08
41712;BME280;27399;51.516;13.670;2023-07-13T00:41:31;100156.50;;;24.10;61.36
41712;BME280;27399;51.516;13.670;2023-07-13T00:44:00;100163.66;;;23.98;62.66
41712;BME280;27399;51.516;13.670;2023-07-13T00:46:30;100152.56;;;24.01;61.91
41712;BME280;27399;51.516;13.670;2023-07-13T00:48:59;100165.09;;;24.04;62.25
41712;BME280;27399;51.516;13.670;2023-07-13T00:51:40;100159.66;;;24.04;62.29
41712;BME280;27399;51.516;13.670;2023-07-13T00:54:13;100173.72;;;24.10;62.56
41712;BME280;27399;51.516;13.670;2023-07-13T00:56:45;100169.38;;;24.08;62.79
41712;BME280;27399;51.516;13.670;2023-07-13T00:59:13;100178.31;;;24.10;61.95
41712;BME280;27399;51.516;13.670;2023-07-13T01:01:43;100168.06;;;24.01;61.05
41712;BME280;27399;51.516;13.670;2023-07-13T01:04:10;100182.22;;;24.06;62.41
41712;BME280;27399;51.516;13.670;2023-07-13T01:06:37;100182.66;;;24.12;62.51
41712;BME280;27399;51.516;13.670;2023-07-13T01:09:04;100185.50;;;24.11;62.02
41712;BME280;27399;51.516;13.670;2023-07-13T01:11:48;100172.28;;;24.05;61.98
41712;BME280;27399;51.516;13.670;2023-07-13T01:14:15;100190.72;;;24.14;61.68
41712;BME280;27399;51.516;13.670;2023-07-13T01:16:46;100182.78;;;24.11;62.54
41712;BME280;27399;51.516;13.670;2023-07-13T01:19:43;100179.84;;;24.27;62.18
41712;BME280;27399;51.516;13.670;2023-07-13T01:22:18;100164.81;;;24.21;61.25
41712;BME280;27399;51.516;13.670;2023-07-13T01:24:48;100174.81;;;24.21;60.52
41712;BME280;27399;51.516;13.670;2023-07-13T01:27:20;100174.81;;;24.21;59.55
41712;BME280;27399;51.516;13.670;2023-07-13T01:29:47;100161.97;;;24.10;59.84
41712;BME280;27399;51.516;13.670;2023-07-13T01:32:16;100151.84;;;24.12;58.51
41712;BME280;27399;51.516;13.670;2023-07-13T01:34:51;100161.72;;;24.13;58.34
41712;BME280;27399;51.516;13.670;2023-07-13T01:37:20;100171.25;;;24.20;58.48
41712;BME280;27399;51.516;13.670;2023-07-13T01:39:46;100168.06;;;24.26;60.00
41712;BME280;27399;51.516;13.670;2023-07-13T01:42:18;100179.47;;;24.06;63.75
41712;BME280;27399;51.516;13.670;2023-07-13T01:44:46;100182.00;;;24.09;62.95
41712;BME280;27399;51.516;13.670;2023-07-13T01:47:12;100180.47;;;24.05;64.09
41712;BME280;27399;51.516;13.670;2023-07-13T01:49:41;100175.44;;;23.98;64.03
41712;BME280;27399;51.516;13.670;2023-07-13T01:52:10;100175.94;;;23.91;64.13
41712;BME280;27399;51.516;13.670;2023-07-13T01:54:39;100177.53;;;23.80;63.42
41712;BME280;27399;51.516;13.670;2023-07-13T01:57:05;100176.09;;;23.75;64.08
41712;BME280;27399;51.516;13.670;2023-07-13T01:59:37;100177.28;;;23.71;64.18
41712;BME280;27399;51.516;13.670;2023-07-13T02:02:06;100178.50;;;23.79;64.17
41712;BME280;27399;51.516;13.670;2023-07-13T02:04:34;100178.72;;;23.76;63.17
41712;BME280;27399;51.516;13.670;2023-07-13T02:07:00;100172.91;;;23.68;63.41
41712;BME280;27399;51.516;13.670;2023-07-13T02:09:29;100179.03;;;23.72;62.83
41712;BME280;27399;51.516;13.670;2023-07-13T02:11:56;100174.53;;;23.58;61.60
41712;BME280;27399;51.516;13.670;2023-07-13T02:14:28;100153.69;;;23.44;61.88
41712;BME280;27399;51.516;13.670;2023-07-13T02:16:54;100182.63;;;23.45;62.79
41712;BME280;27399;51.516;13.670;2023-07-13T02:19:25;100185.31;;;23.59;62.81
41712;BME280;27399;51.516;13.670;2023-07-13T02:21:54;100187.88;;;23.48;62.53
41712;BME280;27399;51.516;13.670;2023-07-13T02:24:26;100186.59;;;23.54;62.72
41712;BME280;27399;51.516;13.670;2023-07-13T02:26:53;100184.38;;;23.46;63.88
41712;BME280;27399;51.516;13.670;2023-07-13T02:29:19;100182.84;;;23.42;64.50
41712;BME280;27399;51.516;13.670;2023-07-13T02:31:51;100183.88;;;23.54;63.83
41712;BME280;27399;51.516;13.670;2023-07-13T02:36:42;100179.91;;;23.45;63.95
41712;BME280;27399;51.516;13.670;2023-07-13T02:39:08;100193.94;;;23.39;63.88
41712;BME280;27399;51.516;13.670;2023-07-13T02:41:34;100194.22;;;23.34;62.92
41712;BME280;27399;51.516;13.670;2023-07-13T02:44:00;100194.13;;;23.35;62.99
41712;BME280;27399;51.516;13.670;2023-07-13T02:46:30;100203.47;;;23.31;62.84
41712;BME280;27399;51.516;13.670;2023-07-13T02:48:56;100207.44;;;23.26;63.12
41712;BME280;27399;51.516;13.670;2023-07-13T02:51:22;100205.03;;;23.21;64.09
41712;BME280;27399;51.516;13.670;2023-07-13T02:53:47;100213.66;;;23.28;64.17
41712;BME280;27399;51.516;13.670;2023-07-13T02:56:13;100226.19;;;23.30;63.97
41712;BME280;27399;51.516;13.670;2023-07-13T02:58:39;100227.88;;;23.33;63.88
41712;BME280;27399;51.516;13.670;2023-07-13T03:01:09;100222.88;;;23.40;63.55
41712;BME280;27399;51.516;13.670;2023-07-13T03:03:36;100208.72;;;23.34;63.66
41712;BME280;27399;51.516;13.670;2023-07-13T03:06:03;100212.22;;;23.22;64.68
41712;BME280;27399;51.516;13.670;2023-07-13T03:08:30;100218.56;;;23.23;65.90
41712;BME280;27399;51.516;13.670;2023-07-13T03:11:16;100218.63;;;23.21;64.57
41712;BME280;27399;51.516;13.670;2023-07-13T03:13:43;100212.41;;;23.19;65.69
41712;BME280;27399;51.516;13.670;2023-07-13T03:16:10;100183.28;;;23.21;65.13
41712;BME280;27399;51.516;13.670;2023-07-13T03:18:36;100185.41;;;23.16;65.59
41712;BME280;27399;51.516;13.670;2023-07-13T03:21:02;100205.50;;;23.13;64.98
41712;BME280;27399;51.516;13.670;2023-07-13T03:23:28;100219.78;;;23.17;63.75
41712;BME280;27399;51.516;13.670;2023-07-13T03:26:10;100225.94;;;23.20;63.21
41712;BME280;27399;51.516;13.670;2023-07-13T03:28:38;100221.72;;;23.29;63.76
41712;BME280;27399;51.516;13.670;2023-07-13T03:31:08;100229.50;;;23.21;63.94
41712;BME280;27399;51.516;13.670;2023-07-13T03:33:34;100239.25;;;23.25;64.38
41712;BME280;27399;51.516;13.670;2023-07-13T03:36:00;100249.72;;;23.17;64.83
41712;BME280;27399;51.516;13.670;2023-07-13T03:38:26;100245.84;;;23.21;64.69
41712;BME280;27399;51.516;13.670;2023-07-13T03:40:52;100235.53;;;23.26;64.84
41712;BME280;27399;51.516;13.670;2023-07-13T03:43:18;100233.00;;;23.23;64.78
41712;BME280;27399;51.516;13.670;2023-07-13T03:45:46;100241.19;;;23.23;65.34
41712;BME280;27399;51.516;13.670;2023-07-13T03:48:11;100220.56;;;23.19;65.00
41712;BME280;27399;51.516;13.670;2023-07-13T03:50:37;100226.00;;;23.19;65.97
41712;BME280;27399;51.516;13.670;2023-07-13T03:53:04;100205.59;;;23.12;66.98
41712;BME280;27399;51.516;13.670;2023-07-13T03:55:29;100207.47;;;23.11;66.05
41712;BME280;27399;51.516;13.670;2023-07-13T03:58:00;100227.06;;;23.16;64.71
41712;BME280;27399;51.516;13.670;2023-07-13T04:00:26;100222.09;;;23.09;66.27
41712;BME280;27399;51.516;13.670;2023-07-13T04:02:52;100230.06;;;22.97;66.75
41712;BME280;27399;51.516;13.670;2023-07-13T04:05:18;100236.97;;;23.03;66.16
41712;BME280;27399;51.516;13.670;2023-07-13T04:07:44;100226.97;;;23.03;66.76
41712;BME280;27399;51.516;13.670;2023-07-13T04:10:10;100231.66;;;23.16;66.55
41712;BME280;27399;51.516;13.670;2023-07-13T04:12:35;100232.69;;;23.13;66.38
41712;BME280;27399;51.516;13.670;2023-07-13T04:15:01;100233.69;;;22.98;66.63
41712;BME280;27399;51.516;13.670;2023-07-13T04:17:27;100238.53;;;23.07;66.82
41712;BME280;27399;51.516;13.670;2023-07-13T04:19:52;100246.50;;;23.10;65.11
41712;BME280;27399;51.516;13.670;2023-07-13T04:22:18;100246.03;;;23.03;65.63
41712;BME280;27399;51.516;13.670;2023-07-13T04:24:44;100255.34;;;23.14;66.21
41712;BME280;27399;51.516;13.670;2023-07-13T04:27:09;100260.22;;;23.23;66.19
41712;BME280;27399;51.516;13.670;2023-07-13T04:29:35;100250.75;;;23.14;66.41
41712;BME280;27399;51.516;13.670;2023-07-13T04:32:01;100257.09;;;23.15;66.56
41712;BME280;27399;51.516;13.670;2023-07-13T04:34:26;100268.44;;;23.07;67.15
41712;BME280;27399;51.516;13.670;2023-07-13T04:36:52;100272.03;;;23.08;66.60
41712;BME280;27399;51.516;13.670;2023-07-13T04:39:18;100267.19;;;23.13;66.96
41712;BME280;27399;51.516;13.670;2023-07-13T04:41:43;100272.44;;;23.16;67.49
41712;BME280;27399;51.516;13.670;2023-07-13T04:44:09;100266.88;;;23.17;66.07
41712;BME280;27399;51.516;13.670;2023-07-13T04:46:35;100260.41;;;23.20;66.25
41712;BME280;27399;51.516;13.670;2023-07-13T04:49:00;100264.22;;;23.32;67.38
41712;BME280;27399;51.516;13.670;2023-07-13T04:51:28;100269.94;;;23.27;66.19
41712;BME280;27399;51.516;13.670;2023-07-13T04:53:54;100272.06;;;23.36;66.69
41712;BME280;27399;51.516;13.670;2023-07-13T04:56:20;100271.09;;;23.38;67.09
41712;BME280;27399;51.516;13.670;2023-07-13T04:58:46;100274.78;;;23.36;67.46
41712;BME280;27399;51.516;13.670;2023-07-13T05:01:11;100275.84;;;23.34;68.15
41712;BME280;27399;51.516;13.670;2023-07-13T05:03:39;100277.09;;;23.43;67.03
41712;BME280;27399;51.516;13.670;2023-07-13T05:06:07;100279.81;;;23.28;65.38
41712;BME280;27399;51.516;13.670;2023-07-13T05:08:35;100282.66;;;23.27;66.51
41712;BME280;27399;51.516;13.670;2023-07-13T05:11:02;100284.41;;;23.28;67.27
41712;BME280;27399;51.516;13.670;2023-07-13T05:13:29;100291.72;;;23.27;65.91
41712;BME280;27399;51.516;13.670;2023-07-13T05:16:02;100281.97;;;23.23;65.87
41712;BME280;27399;51.516;13.670;2023-07-13T05:18:28;100284.28;;;23.29;66.26
41712;BME280;27399;51.516;13.670;2023-07-13T05:20:59;100289.63;;;23.16;66.37
41712;BME280;27399;51.516;13.670;2023-07-13T05:23:26;100297.91;;;23.29;66.93
41712;BME280;27399;51.516;13.670;2023-07-13T05:25:52;100299.28;;;23.22;67.11
41712;BME280;27399;51.516;13.670;2023-07-13T05:28:18;100306.22;;;23.12;67.78
41712;BME280;27399;51.516;13.670;2023-07-13T05:30:47;100293.03;;;23.20;68.41
41712;BME280;27399;51.516;13.670;2023-07-13T05:33:13;100300.78;;;23.12;69.15
41712;BME280;27399;51.516;13.670;2023-07-13T05:35:39;100299.38;;;23.20;68.53
41712;BME280;27399;51.516;13.670;2023-07-13T05:38:05;100304.13;;;23.17;68.33
41712;BME280;27399;51.516;13.670;2023-07-13T05:40:31;100307.81;;;23.16;68.91
41712;BME280;27399;51.516;13.670;2023-07-13T05:42:57;100303.13;;;23.18;68.60
41712;BME280;27399;51.516;13.670;2023-07-13T05:45:23;100310.16;;;23.22;68.13
41712;BME280;27399;51.516;13.670;2023-07-13T05:47:48;100309.19;;;23.23;68.01
41712;BME280;27399;51.516;13.670;2023-07-13T05:50:14;100313.44;;;23.42;68.14
41712;BME280;27399;51.516;13.670;2023-07-13T05:52:40;100315.38;;;23.40;68.42
41712;BME280;27399;51.516;13.670;2023-07-13T05:55:06;100313.25;;;23.45;68.53
41712;BME280;27399;51.516;13.670;2023-07-13T05:57:31;100302.66;;;23.40;68.65
41712;BME280;27399;51.516;13.670;2023-07-13T05:59:57;100302.78;;;23.39;68.52
41712;BME280;27399;51.516;13.670;2023-07-13T06:02:23;100304.72;;;23.36;69.08
41712;BME280;27399;51.516;13.670;2023-07-13T06:04:49;100304.91;;;23.33;67.12
41712;BME280;27399;51.516;13.670;2023-07-13T06:07:15;100303.81;;;23.36;68.62
41712;BME280;27399;51.516;13.670;2023-07-13T06:09:40;100304.97;;;23.17;67.24
41712;BME280;27399;51.516;13.670;2023-07-13T06:12:07;100296.94;;;23.45;67.54
41712;BME280;27399;51.516;13.670;2023-07-13T06:14:32;100307.22;;;23.54;67.91
41712;BME280;27399;51.516;13.670;2023-07-13T06:16:58;100302.63;;;23.55;67.05
41712;BME280;27399;51.516;13.670;2023-07-13T06:19:24;100307.38;;;23.80;64.56
41712;BME280;27399;51.516;13.670;2023-07-13T06:21:49;100307.38;;;23.65;65.71
41712;BME280;27399;51.516;13.670;2023-07-13T06:24:15;100307.25;;;23.81;65.75
41712;BME280;27399;51.516;13.670;2023-07-13T06:26:41;100298.19;;;23.95;65.62
41712;BME280;27399;51.516;13.670;2023-07-13T06:29:07;100297.88;;;24.00;66.11
41712;BME280;27399;51.516;13.670;2023-07-13T06:31:32;100300.97;;;24.08;65.62
41712;BME280;27399;51.516;13.670;2023-07-13T06:33:58;100304.72;;;24.20;65.71
41712;BME280;27399;51.516;13.670;2023-07-13T06:36:24;100301.38;;;24.29;66.08
41712;BME280;27399;51.516;13.670;2023-07-13T06:38:49;100305.69;;;24.47;64.17
41712;BME280;27399;51.516;13.670;2023-07-13T06:41:15;100305.25;;;24.53;63.92
41712;BME280;27399;51.516;13.670;2023-07-13T06:43:41;100303.53;;;24.65;64.26
41712;BME280;27399;51.516;13.670;2023-07-13T06:46:07;100299.59;;;24.56;60.14
41712;BME280;27399;51.516;13.670;2023-07-13T06:48:33;100303.56;;;24.78;60.42
41712;BME280;27399;51.516;13.670;2023-07-13T06:50:59;100313.81;;;25.00;60.88
41712;BME280;27399;51.516;13.670;2023-07-13T06:53:25;100311.47;;;24.68;58.71
41712;BME280;27399;51.516;13.670;2023-07-13T06:55:51;100306.06;;;25.19;58.95
41712;BME280;27399;51.516;13.670;2023-07-13T06:58:17;100307.59;;;25.24;59.90
41712;BME280;27399;51.516;13.670;2023-07-13T07:00:44;100314.59;;;25.41;58.73
41712;BME280;27399;51.516;13.670;2023-07-13T07:03:09;100314.69;;;25.52;58.21
41712;BME280;27399;51.516;13.670;2023-07-13T07:05:35;100321.88;;;25.66;59.15
41712;BME280;27399;51.516;13.670;2023-07-13T07:08:01;100318.44;;;25.75;57.82
41712;BME280;27399;51.516;13.670;2023-07-13T07:10:29;100324.09;;;25.22;56.76
41712;BME280;27399;51.516;13.670;2023-07-13T07:12:55;100320.13;;;25.65;57.44
41712;BME280;27399;51.516;13.670;2023-07-13T07:15:21;100323.88;;;25.88;57.07
41712;BME280;27399;51.516;13.670;2023-07-13T07:17:47;100326.66;;;25.99;57.91
41712;BME280;27399;51.516;13.670;2023-07-13T07:20:12;100329.69;;;26.21;56.45
41712;BME280;27399;51.516;13.670;2023-07-13T07:22:38;100329.13;;;26.28;56.59
41712;BME280;27399;51.516;13.670;2023-07-13T07:25:04;100344.53;;;26.41;57.03
41712;BME280;27399;51.516;13.670;2023-07-13T07:27:30;100335.66;;;26.26;54.40
41712;BME280;27399;51.516;13.670;2023-07-13T07:29:56;100339.38;;;26.49;56.80
41712;BME280;27399;51.516;13.670;2023-07-13T07:32:23;100337.66;;;26.24;55.54
41712;BME280;27399;51.516;13.670;2023-07-13T07:34:49;100336.41;;;26.52;55.26
41712;BME280;27399;51.516;13.670;2023-07-13T07:37:15;100335.03;;;26.58;57.52
41712;BME280;27399;51.516;13.670;2023-07-13T07:39:43;100334.94;;;26.59;56.00
41712;BME280;27399;51.516;13.670;2023-07-13T07:42:09;100342.16;;;26.60;56.12
41712;BME280;27399;51.516;13.670;2023-07-13T07:44:34;100344.19;;;26.70;56.57
41712;BME280;27399;51.516;13.670;2023-07-13T07:47:01;100323.84;;;26.50;56.77
41712;BME280;27399;51.516;13.670;2023-07-13T07:49:27;100333.75;;;26.75;58.54
41712;BME280;27399;51.516;13.670;2023-07-13T07:51:52;100344.19;;;26.70;56.14
41712;BME280;27399;51.516;13.670;2023-07-13T07:54:18;100338.53;;;26.60;55.88
41712;BME280;27399;51.516;13.670;2023-07-13T07:56:44;100342.75;;;26.88;55.11
41712;BME280;27399;51.516;13.670;2023-07-13T07:59:09;100336.91;;;26.82;54.28
41712;BME280;27399;51.516;13.670;2023-07-13T08:01:36;100351.78;;;26.78;54.74
41712;BME280;27399;51.516;13.670;2023-07-13T08:04:02;100352.78;;;26.76;54.39
41712;BME280;27399;51.516;13.670;2023-07-13T08:06:27;100352.50;;;26.68;55.21
41712;BME280;27399;51.516;13.670;2023-07-13T08:08:54;100349.22;;;26.87;56.07
41712;BME280;27399;51.516;13.670;2023-07-13T08:11:21;100359.56;;;26.95;55.05
41712;BME280;27399;51.516;13.670;2023-07-13T08:13:47;100356.16;;;26.44;54.39
41712;BME280;27399;51.516;13.670;2023-07-13T08:16:13;100355.94;;;26.59;54.60
41712;BME280;27399;51.516;13.670;2023-07-13T08:18:39;100358.78;;;26.82;55.10
41712;BME280;27399;51.516;13.670;2023-07-13T08:21:05;100361.66;;;26.80;54.54
41712;BME280;27399;51.516;13.670;2023-07-13T08:23:31;100362.06;;;26.74;54.33
41712;BME280;27399;51.516;13.670;2023-07-13T08:25:57;100358.22;;;27.01;55.20
41712;BME280;27399;51.516;13.670;2023-07-13T08:28:24;100363.13;;;26.84;55.10
41712;BME280;27399;51.516;13.670;2023-07-13T08:30:50;100366.53;;;26.99;55.60
41712;BME280;27399;51.516;13.670;2023-07-13T08:33:21;100363.19;;;27.07;54.71
41712;BME280;27399;51.516;13.670;2023-07-13T08:35:49;100372.41;;;27.06;54.47
41712;BME280;27399;51.516;13.670;2023-07-13T08:38:16;100364.84;;;27.32;54.51
41712;BME280;27399;51.516;13.670;2023-07-13T08:40:42;100359.81;;;26.92;54.01
41712;BME280;27399;51.516;13.670;2023-07-13T08:43:17;100351.88;;;27.12;54.03
41712;BME280;27399;51.516;13.670;2023-07-13T08:45:48;100357.50;;;27.21;53.73
41712;BME280;27399;51.516;13.670;2023-07-13T08:48:31;100353.25;;;27.17;56.69
41712;BME280;27399;51.516;13.670;2023-07-13T08:51:04;100362.34;;;27.06;55.21
41712;BME280;27399;51.516;13.670;2023-07-13T08:53:39;100351.25;;;27.08;55.59
41712;BME280;27399;51.516;13.670;2023-07-13T08:56:11;100351.78;;;27.13;56.30
41712;BME280;27399;51.516;13.670;2023-07-13T08:58:39;100352.88;;;27.11;55.69
41712;BME280;27399;51.516;13.670;2023-07-13T09:01:21;100353.66;;;27.24;54.95
41712;BME280;27399;51.516;13.670;2023-07-13T09:04:04;100354.56;;;26.89;54.57
41712;BME280;27399;51.516;13.670;2023-07-13T09:06:49;100347.41;;;27.11;54.23
41712;BME280;27399;51.516;13.670;2023-07-13T09:12:30;100353.88;;;26.98;54.28
41712;BME280;27399;51.516;13.670;2023-07-13T09:14:59;100353.13;;;27.30;54.17
41712;BME280;27399;51.516;13.670;2023-07-13T09:17:36;100351.03;;;27.11;54.85
41712;BME280;27399;51.516;13.670;2023-07-13T09:20:29;100352.44;;;27.40;54.06
41712;BME280;27399;51.516;13.670;2023-07-13T09:23:00;100355.41;;;27.36;53.62
41712;BME280;27399;51.516;13.670;2023-07-13T09:25:32;100357.19;;;27.49;54.23
41712;BME280;27399;51.516;13.670;2023-07-13T09:28:39;100355.91;;;27.53;53.42
41712;BME280;27399;51.516;13.670;2023-07-13T09:31:15;100357.19;;;27.49;54.15
41712;BME280;27399;51.516;13.670;2023-07-13T09:33:43;100364.13;;;27.53;53.48
41712;BME280;27399;51.516;13.670;2023-07-13T09:36:23;100361.69;;;26.91;52.93
41712;BME280;27399;51.516;13.670;2023-07-13T09:39:03;100370.06;;;27.24;54.07
41712;BME280;27399;51.516;13.670;2023-07-13T09:44:26;100372.16;;;27.09;53.53
41712;BME280;27399;51.516;13.670;2023-07-13T09:46:55;100373.81;;;27.34;54.63
41712;BME280;27399;51.516;13.670;2023-07-13T09:49:34;100364.09;;;27.42;55.23
41712;BME280;27399;51.516;13.670;2023-07-13T09:52:11;100372.63;;;27.50;55.17
41712;BME280;27399;51.516;13.670;2023-07-13T09:54:43;100374.25;;;27.52;53.06
41712;BME280;27399;51.516;13.670;2023-07-13T09:57:17;100368.13;;;27.49;53.53
41712;BME280;27399;51.516;13.670;2023-07-13T09:59:46;100365.63;;;27.57;53.88
41712;BME280;27399;51.516;13.670;2023-07-13T10:02:32;100380.31;;;27.56;52.99
41712;BME280;27399;51.516;13.670;2023-07-13T10:05:02;100394.28;;;27.64;55.67
41712;BME280;27399;51.516;13.670;2023-07-13T10:07:29;100383.06;;;27.67;52.72
41712;BME280;27399;51.516;13.670;2023-07-13T10:10:01;100380.56;;;27.64;53.56
41712;BME280;27399;51.516;13.670;2023-07-13T10:12:29;100387.16;;;27.50;52.80
41712;BME280;27399;51.516;13.670;2023-07-13T10:14:57;100386.09;;;27.17;53.58
41712;BME280;27399;51.516;13.670;2023-07-13T10:17:29;100391.00;;;27.36;53.75
41712;BME280;27399;51.516;13.670;2023-07-13T10:20:01;100389.47;;;27.32;53.87
41712;BME280;27399;51.516;13.670;2023-07-13T10:23:02;100387.69;;;27.56;53.58
41712;BME280;27399;51.516;13.670;2023-07-13T10:25:33;100394.09;;;27.32;54.16
41712;BME280;27399;51.516;13.670;2023-07-13T10:28:10;100391.41;;;27.55;54.46
41712;BME280;27399;51.516;13.670;2023-07-13T10:30:42;100392.91;;;27.70;53.45
41712;BME280;27399;51.516;13.670;2023-07-13T10:33:11;100387.03;;;27.63;53.46
41712;BME280;27399;51.516;13.670;2023-07-13T10:35:39;100386.31;;;27.61;52.96
41712;BME280;27399;51.516;13.670;2023-07-13T10:38:11;100376.97;;;27.64;52.76
41712;BME280;27399;51.516;13.670;2023-07-13T10:40:42;100382.75;;;28.05;53.37
41712;BME280;27399;51.516;13.670;2023-07-13T10:43:15;100386.03;;;27.98;51.82
41712;BME280;27399;51.516;13.670;2023-07-13T10:45:45;100388.78;;;27.64;51.46
41712;BME280;27399;51.516;13.670;2023-07-13T10:48:13;100387.66;;;27.90;51.14
41712;BME280;27399;51.516;13.670;2023-07-13T10:50:42;100376.56;;;28.14;52.63
41712;BME280;27399;51.516;13.670;2023-07-13T10:53:30;100376.47;;;27.59;51.40
41712;BME280;27399;51.516;13.670;2023-07-13T10:56:03;100384.63;;;27.13;51.36
41712;BME280;27399;51.516;13.670;2023-07-13T10:58:40;100379.72;;;27.75;51.26
41712;BME280;27399;51.516;13.670;2023-07-13T11:01:13;100370.59;;;27.63;51.04
41712;BME280;27399;51.516;13.670;2023-07-13T11:04:11;100369.94;;;28.05;51.45
41712;BME280;27399;51.516;13.670;2023-07-13T11:06:40;100363.50;;;27.72;51.27
41712;BME280;27399;51.516;13.670;2023-07-13T11:09:51;100363.25;;;27.87;49.72
41712;BME280;27399;51.516;13.670;2023-07-13T11:12:28;100353.03;;;27.89;50.33
41712;BME280;27399;51.516;13.670;2023-07-13T11:15:13;100366.78;;;28.33;48.56
41712;BME280;27399;51.516;13.670;2023-07-13T11:17:50;100362.28;;;28.43;47.79
41712;BME280;27399;51.516;13.670;2023-07-13T11:22:48;100368.53;;;28.34;47.00
41712;BME280;27399;51.516;13.670;2023-07-13T11:25:21;100374.91;;;28.67;48.34
41712;BME280;27399;51.516;13.670;2023-07-13T11:33:24;100365.81;;;28.55;47.75
41712;BME280;27399;51.516;13.670;2023-07-13T11:36:15;100364.25;;;28.41;48.22
41712;BME280;27399;51.516;13.670;2023-07-13T11:38:42;100370.25;;;28.46;48.56
41712;BME280;27399;51.516;13.670;2023-07-13T11:41:21;100364.34;;;28.18;49.03
41712;BME280;27399;51.516;13.670;2023-07-13T11:43:53;100363.31;;;28.30;47.92
41712;BME280;27399;51.516;13.670;2023-07-13T11:46:21;100366.53;;;28.36;48.71
41712;BME280;27399;51.516;13.670;2023-07-13T11:48:48;100347.47;;;28.34;48.80
41712;BME280;27399;51.516;13.670;2023-07-13T11:51:29;100356.19;;;28.60;47.89
41712;BME280;27399;51.516;13.670;2023-07-13T11:54:02;100356.41;;;29.01;47.66
41712;BME280;27399;51.516;13.670;2023-07-13T11:56:29;100358.06;;;28.92;46.51
41712;BME280;27399;51.516;13.670;2023-07-13T11:58:59;100358.47;;;29.09;45.91
41712;BME280;27399;51.516;13.670;2023-07-13T12:01:31;100356.63;;;29.41;45.76
41712;BME280;27399;51.516;13.670;2023-07-13T12:04:00;100347.72;;;29.48;44.89
41712;BME280;27399;51.516;13.670;2023-07-13T12:06:36;100351.81;;;29.64;45.18
41712;BME280;27399;51.516;13.670;2023-07-13T12:09:12;100353.56;;;29.65;47.41
41712;BME280;27399;51.516;13.670;2023-07-13T12:11:45;100351.72;;;29.44;46.94
41712;BME280;27399;51.516;13.670;2023-07-13T12:14:18;100353.09;;;29.29;46.64
41712;BME280;27399;51.516;13.670;2023-07-13T12:16:46;100350.03;;;29.53;47.82
41712;BME280;27399;51.516;13.670;2023-07-13T12:19:23;100355.97;;;29.48;47.17
41712;BME280;27399;51.516;13.670;2023-07-13T12:21:52;100352.28;;;29.69;48.48
41712;BME280;27399;51.516;13.670;2023-07-13T12:24:21;100353.16;;;29.38;46.11
41712;BME280;27399;51.516;13.670;2023-07-13T12:26:58;100359.56;;;29.49;45.91
41712;BME280;27399;51.516;13.670;2023-07-13T12:29:25;100353.72;;;28.90;45.83
41712;BME280;27399;51.516;13.670;2023-07-13T12:31:51;100352.44;;;29.15;46.73
41712;BME280;27399;51.516;13.670;2023-07-13T12:34:22;100351.16;;;28.98;47.36
41712;BME280;27399;51.516;13.670;2023-07-13T12:36:59;100355.84;;;29.07;49.02
41712;BME280;27399;51.516;13.670;2023-07-13T12:39:37;100345.59;;;29.10;47.42
41712;BME280;27399;51.516;13.670;2023-07-13T12:42:25;100349.06;;;29.33;47.97
41712;BME280;27399;51.516;13.670;2023-07-13T12:45:17;100351.78;;;29.54;47.61
41712;BME280;27399;51.516;13.670;2023-07-13T12:47:44;100347.00;;;29.25;48.07
41712;BME280;27399;51.516;13.670;2023-07-13T12:50:19;100347.84;;;29.26;46.28
41712;BME280;27399;51.516;13.670;2023-07-13T12:53:01;100345.38;;;28.59;45.76
41712;BME280;27399;51.516;13.670;2023-07-13T12:55:28;100344.22;;;29.36;47.03
41712;BME280;27399;51.516;13.670;2023-07-13T12:57:58;100336.13;;;29.23;46.83
41712;BME280;27399;51.516;13.670;2023-07-13T13:00:35;100340.91;;;29.43;45.23
41712;BME280;27399;51.516;13.670;2023-07-13T13:03:34;100331.97;;;29.50;45.11
41712;BME280;27399;51.516;13.670;2023-07-13T13:08:49;100335.44;;;29.52;45.84
41712;BME280;27399;51.516;13.670;2023-07-13T13:11:16;100321.69;;;29.52;46.35
41712;BME280;27399;51.516;13.670;2023-07-13T13:13:43;100335.81;;;29.38;47.06
41712;BME280;27399;51.516;13.670;2023-07-13T13:16:31;100334.88;;;29.59;46.10
41712;BME280;27399;51.516;13.670;2023-07-13T13:18:59;100345.22;;;29.45;45.16